Hudsonville, Michigan
Current Conditions -  °F | °C
As of 12:32 PM on Wednesday 26 Nov 2014 (Local Time) from KGRR Reporting Station
Overcast Overcast  
Wind Chill: 24°   Ceiling: 2600
Heat Index: 29°   Visibility: 10mi
Dew Point: 21°   Wind: 5mph
Humidity: 72%   Direction: 100°E
Pressure: 30.13"   Gusts: NA
Location:  42.88°N, 85.85°W
Report Text: KGRR 261732Z 10004KT 10SM BKN026 OVC033 M02/M06 A3013 RMK AO2 SNE04 P0000 T10171061
Loading
Personal Weather Stations






























Interactive Weather Map New forecast layout! Learn more

10-Day Weather Forecast

Advertisements
Track Severe Weather on mobile